Decoded Metar for KTXK (TEXARKANA in AR, USA) (IATA:TXK) | Meteo·Mobile Aviation Weather
aviador You're here:

KTXK Decoded Metar

TEXARKANA in AR, USA
Report Time2019-02-22 02:53:00
UTC Time2019-02-22 03:49:41
Flight Rules ifr IFR
Wind070° at 08 kt
W.Decomp.*RWY 04: 7.3 kt HW 3.4 kt RCW
RWY 13: 3.4 kt HW 7.3 kt LCW
W.Rank070° ranks 8
Current wind is above 070° avg. (5.0)
Visibility9999 m
Phenomena:N/A
Clouds:Overcast 009 Hf
Expected CloudBase > 400 ft AGL from Temp-Dew spread
Ceiling900 ft
Temp07°C (ISA -7)
Dew Point06°C (93% RH)
AAT3.2°C
QNH1018 hPa
Density Alt-554 ft
Elevation364 ft
Report Wrong Elevation
Raw Report
KTXK 220253Z 07008KT 10SM OVC009 07/06 A3006 RMK AO2 SLP180
T00670056 53005=

Extra information for KTXK:More info

Metar Taf Metar & Taf Last 4 Metars F.Rules Stats Wind Profile Meteogram Temp Stats Airport Information Weather charts Add Link Nearby VenuesMetar ALERT Operation Metar Decoded Social comments

AIRNAV info for KTXK